sensor_id;sensor_type;location;lat;lon;timestamp;P1;durP1;ratioP1;P2;durP2;ratioP2
9160;SDS011;4615;51.340;8.288;2022-09-21T00:00:08;5.90;;;2.80;;
9160;SDS011;4615;51.340;8.288;2022-09-21T00:02:35;7.10;;;3.00;;
9160;SDS011;4615;51.340;8.288;2022-09-21T00:05:01;3.30;;;2.70;;
9160;SDS011;4615;51.340;8.288;2022-09-21T00:07:28;4.70;;;2.80;;
9160;SDS011;4615;51.340;8.288;2022-09-21T00:09:55;3.20;;;2.70;;
9160;SDS011;4615;51.340;8.288;2022-09-21T00:12:22;7.50;;;2.80;;
9160;SDS011;4615;51.340;8.288;2022-09-21T00:14:49;5.87;;;3.40;;
9160;SDS011;4615;51.340;8.288;2022-09-21T00:17:15;3.77;;;2.50;;
9160;SDS011;4615;51.340;8.288;2022-09-21T00:19:42;5.20;;;2.43;;
9160;SDS011;4615;51.340;8.288;2022-09-21T00:22:08;4.30;;;2.90;;
9160;SDS011;4615;51.340;8.288;2022-09-21T00:24:34;5.67;;;2.43;;
9160;SDS011;4615;51.340;8.288;2022-09-21T00:27:02;2.37;;;2.13;;
9160;SDS011;4615;51.340;8.288;2022-09-21T00:29:29;4.67;;;2.47;;
9160;SDS011;4615;51.340;8.288;2022-09-21T00:31:55;5.27;;;2.90;;
9160;SDS011;4615;51.340;8.288;2022-09-21T00:34:22;5.93;;;3.20;;
9160;SDS011;4615;51.340;8.288;2022-09-21T00:36:48;5.63;;;2.80;;
9160;SDS011;4615;51.340;8.288;2022-09-21T00:39:15;3.73;;;2.90;;
9160;SDS011;4615;51.340;8.288;2022-09-21T00:41:41;3.00;;;2.70;;
9160;SDS011;4615;51.340;8.288;2022-09-21T00:44:18;3.93;;;2.83;;
9160;SDS011;4615;51.340;8.288;2022-09-21T00:46:45;6.30;;;3.50;;
9160;SDS011;4615;51.340;8.288;2022-09-21T00:49:12;4.30;;;3.20;;
9160;SDS011;4615;51.340;8.288;2022-09-21T00:51:39;12.23;;;4.00;;
9160;SDS011;4615;51.340;8.288;2022-09-21T00:54:07;6.43;;;3.17;;
9160;SDS011;4615;51.340;8.288;2022-09-21T00:56:36;6.93;;;2.70;;
9160;SDS011;4615;51.340;8.288;2022-09-21T00:59:02;3.60;;;2.57;;
9160;SDS011;4615;51.340;8.288;2022-09-21T01:01:31;4.37;;;2.63;;
9160;SDS011;4615;51.340;8.288;2022-09-21T01:03:58;7.23;;;3.33;;
9160;SDS011;4615;51.340;8.288;2022-09-21T01:06:24;12.43;;;3.70;;
9160;SDS011;4615;51.340;8.288;2022-09-21T01:08:52;7.43;;;3.43;;
9160;SDS011;4615;51.340;8.288;2022-09-21T01:11:22;7.67;;;3.27;;
9160;SDS011;4615;51.340;8.288;2022-09-21T01:13:57;8.67;;;3.30;;
9160;SDS011;4615;51.340;8.288;2022-09-21T01:16:28;7.10;;;3.17;;
9160;SDS011;4615;51.340;8.288;2022-09-21T01:19:03;8.60;;;3.70;;
9160;SDS011;4615;51.340;8.288;2022-09-21T01:21:36;5.77;;;3.70;;
9160;SDS011;4615;51.340;8.288;2022-09-21T01:24:11;15.50;;;3.90;;
9160;SDS011;4615;51.340;8.288;2022-09-21T01:26:44;10.00;;;4.13;;
9160;SDS011;4615;51.340;8.288;2022-09-21T01:29:19;19.47;;;4.60;;
9160;SDS011;4615;51.340;8.288;2022-09-21T01:31:48;11.00;;;4.13;;
9160;SDS011;4615;51.340;8.288;2022-09-21T01:34:18;13.97;;;4.10;;
9160;SDS011;4615;51.340;8.288;2022-09-21T01:36:47;8.70;;;4.03;;
9160;SDS011;4615;51.340;8.288;2022-09-21T01:39:15;7.03;;;3.70;;
9160;SDS011;4615;51.340;8.288;2022-09-21T01:41:44;12.50;;;4.40;;
9160;SDS011;4615;51.340;8.288;2022-09-21T01:44:12;14.20;;;3.97;;
9160;SDS011;4615;51.340;8.288;2022-09-21T01:46:41;9.40;;;4.00;;
9160;SDS011;4615;51.340;8.288;2022-09-21T01:49:11;9.03;;;3.60;;
9160;SDS011;4615;51.340;8.288;2022-09-21T01:51:40;4.30;;;3.20;;
9160;SDS011;4615;51.340;8.288;2022-09-21T01:54:08;6.37;;;3.37;;
9160;SDS011;4615;51.340;8.288;2022-09-21T01:56:37;13.33;;;3.70;;
9160;SDS011;4615;51.340;8.288;2022-09-21T01:59:06;15.03;;;4.10;;
9160;SDS011;4615;51.340;8.288;2022-09-21T02:01:34;8.30;;;3.27;;
9160;SDS011;4615;51.340;8.288;2022-09-21T02:04:07;4.40;;;3.10;;
9160;SDS011;4615;51.340;8.288;2022-09-21T02:06:37;5.70;;;3.03;;
9160;SDS011;4615;51.340;8.288;2022-09-21T02:09:05;3.57;;;2.63;;
9160;SDS011;4615;51.340;8.288;2022-09-21T02:11:32;6.30;;;3.00;;
9160;SDS011;4615;51.340;8.288;2022-09-21T02:13:58;8.43;;;3.20;;
9160;SDS011;4615;51.340;8.288;2022-09-21T02:16:28;5.97;;;3.50;;
9160;SDS011;4615;51.340;8.288;2022-09-21T02:19:00;18.37;;;3.50;;
9160;SDS011;4615;51.340;8.288;2022-09-21T02:21:36;13.10;;;3.57;;
9160;SDS011;4615;51.340;8.288;2022-09-21T02:24:07;12.33;;;3.90;;
9160;SDS011;4615;51.340;8.288;2022-09-21T02:26:38;7.67;;;4.80;;
9160;SDS011;4615;51.340;8.288;2022-09-21T02:29:09;9.77;;;4.30;;
9160;SDS011;4615;51.340;8.288;2022-09-21T02:31:43;10.23;;;4.73;;
9160;SDS011;4615;51.340;8.288;2022-09-21T02:34:13;7.00;;;3.63;;
9160;SDS011;4615;51.340;8.288;2022-09-21T02:36:44;8.33;;;4.40;;
9160;SDS011;4615;51.340;8.288;2022-09-21T02:39:14;11.33;;;5.37;;
9160;SDS011;4615;51.340;8.288;2022-09-21T02:41:43;8.47;;;4.97;;
9160;SDS011;4615;51.340;8.288;2022-09-21T02:44:13;11.37;;;5.17;;
9160;SDS011;4615;51.340;8.288;2022-09-21T02:46:45;12.70;;;5.10;;
9160;SDS011;4615;51.340;8.288;2022-09-21T02:49:15;16.47;;;6.63;;
9160;SDS011;4615;51.340;8.288;2022-09-21T02:51:45;8.97;;;6.47;;
9160;SDS011;4615;51.340;8.288;2022-09-21T02:54:13;12.17;;;6.63;;
9160;SDS011;4615;51.340;8.288;2022-09-21T02:56:40;10.23;;;5.40;;
9160;SDS011;4615;51.340;8.288;2022-09-21T02:59:07;8.70;;;5.13;;
9160;SDS011;4615;51.340;8.288;2022-09-21T03:01:34;16.77;;;6.30;;
9160;SDS011;4615;51.340;8.288;2022-09-21T03:04:01;17.97;;;5.87;;
9160;SDS011;4615;51.340;8.288;2022-09-21T03:06:27;12.27;;;5.83;;
9160;SDS011;4615;51.340;8.288;2022-09-21T03:08:55;12.37;;;6.63;;
9160;SDS011;4615;51.340;8.288;2022-09-21T03:11:22;19.20;;;6.67;;
9160;SDS011;4615;51.340;8.288;2022-09-21T03:13:49;18.93;;;8.87;;
9160;SDS011;4615;51.340;8.288;2022-09-21T03:16:15;20.83;;;9.20;;
9160;SDS011;4615;51.340;8.288;2022-09-21T03:18:42;23.90;;;9.40;;
9160;SDS011;4615;51.340;8.288;2022-09-21T03:21:09;27.13;;;8.90;;
9160;SDS011;4615;51.340;8.288;2022-09-21T03:23:35;18.37;;;8.50;;
9160;SDS011;4615;51.340;8.288;2022-09-21T03:26:03;17.40;;;8.47;;
9160;SDS011;4615;51.340;8.288;2022-09-21T03:28:30;17.00;;;8.27;;
9160;SDS011;4615;51.340;8.288;2022-09-21T03:30:56;18.60;;;7.27;;
9160;SDS011;4615;51.340;8.288;2022-09-21T03:33:23;11.73;;;7.03;;
9160;SDS011;4615;51.340;8.288;2022-09-21T03:35:50;13.73;;;7.53;;
9160;SDS011;4615;51.340;8.288;2022-09-21T03:38:17;18.30;;;7.47;;
9160;SDS011;4615;51.340;8.288;2022-09-21T03:40:44;14.00;;;7.13;;
9160;SDS011;4615;51.340;8.288;2022-09-21T03:43:12;16.00;;;9.07;;
9160;SDS011;4615;51.340;8.288;2022-09-21T03:45:39;23.07;;;8.50;;
9160;SDS011;4615;51.340;8.288;2022-09-21T03:48:06;118.60;;;10.27;;
9160;SDS011;4615;51.340;8.288;2022-09-21T03:50:32;19.23;;;5.90;;
9160;SDS011;4615;51.340;8.288;2022-09-21T03:52:59;20.13;;;7.07;;
9160;SDS011;4615;51.340;8.288;2022-09-21T03:55:25;13.50;;;5.13;;
9160;SDS011;4615;51.340;8.288;2022-09-21T03:57:52;17.20;;;6.10;;
9160;SDS011;4615;51.340;8.288;2022-09-21T04:00:20;15.43;;;5.27;;
9160;SDS011;4615;51.340;8.288;2022-09-21T04:02:47;13.73;;;5.10;;
9160;SDS011;4615;51.340;8.288;2022-09-21T04:05:14;8.90;;;5.70;;
9160;SDS011;4615;51.340;8.288;2022-09-21T04:07:41;7.07;;;5.00;;
9160;SDS011;4615;51.340;8.288;2022-09-21T04:10:10;13.83;;;5.13;;
9160;SDS011;4615;51.340;8.288;2022-09-21T04:12:37;5.17;;;4.67;;
9160;SDS011;4615;51.340;8.288;2022-09-21T04:15:08;12.50;;;4.30;;
9160;SDS011;4615;51.340;8.288;2022-09-21T04:17:36;10.77;;;3.63;;
9160;SDS011;4615;51.340;8.288;2022-09-21T04:20:03;35.73;;;4.10;;
9160;SDS011;4615;51.340;8.288;2022-09-21T04:22:30;8.67;;;3.67;;
9160;SDS011;4615;51.340;8.288;2022-09-21T04:24:56;63.97;;;5.10;;
9160;SDS011;4615;51.340;8.288;2022-09-21T04:27:23;43.07;;;4.10;;
9160;SDS011;4615;51.340;8.288;2022-09-21T04:29:49;39.20;;;4.57;;
9160;SDS011;4615;51.340;8.288;2022-09-21T04:32:16;13.90;;;3.47;;
9160;SDS011;4615;51.340;8.288;2022-09-21T04:34:43;6.43;;;3.77;;
9160;SDS011;4615;51.340;8.288;2022-09-21T04:37:10;51.13;;;4.17;;
9160;SDS011;4615;51.340;8.288;2022-09-21T04:39:36;23.70;;;3.80;;
9160;SDS011;4615;51.340;8.288;2022-09-21T04:42:03;32.57;;;4.67;;
9160;SDS011;4615;51.340;8.288;2022-09-21T04:44:29;6.63;;;4.63;;
9160;SDS011;4615;51.340;8.288;2022-09-21T04:46:56;6.30;;;3.97;;
9160;SDS011;4615;51.340;8.288;2022-09-21T04:49:22;24.10;;;5.10;;
9160;SDS011;4615;51.340;8.288;2022-09-21T04:51:50;15.40;;;3.70;;
9160;SDS011;4615;51.340;8.288;2022-09-21T04:54:17;12.77;;;3.47;;
9160;SDS011;4615;51.340;8.288;2022-09-21T04:56:43;19.53;;;4.23;;
9160;SDS011;4615;51.340;8.288;2022-09-21T04:59:09;20.53;;;3.87;;
9160;SDS011;4615;51.340;8.288;2022-09-21T05:01:36;13.10;;;3.87;;
9160;SDS011;4615;51.340;8.288;2022-09-21T05:04:02;14.60;;;3.40;;
9160;SDS011;4615;51.340;8.288;2022-09-21T05:06:28;16.87;;;3.87;;
9160;SDS011;4615;51.340;8.288;2022-09-21T05:08:56;12.57;;;4.43;;
9160;SDS011;4615;51.340;8.288;2022-09-21T05:11:40;11.20;;;5.77;;
9160;SDS011;4615;51.340;8.288;2022-09-21T05:14:07;12.10;;;5.93;;
9160;SDS011;4615;51.340;8.288;2022-09-21T05:16:33;23.10;;;5.97;;
9160;SDS011;4615;51.340;8.288;2022-09-21T05:19:00;25.17;;;5.83;;
9160;SDS011;4615;51.340;8.288;2022-09-21T05:21:27;10.37;;;5.03;;
9160;SDS011;4615;51.340;8.288;2022-09-21T05:23:54;28.83;;;5.30;;
9160;SDS011;4615;51.340;8.288;2022-09-21T05:26:22;15.33;;;5.13;;
9160;SDS011;4615;51.340;8.288;2022-09-21T05:28:49;26.10;;;5.47;;
9160;SDS011;4615;51.340;8.288;2022-09-21T05:31:22;23.70;;;6.27;;
9160;SDS011;4615;51.340;8.288;2022-09-21T05:33:53;20.63;;;6.40;;
9160;SDS011;4615;51.340;8.288;2022-09-21T05:36:26;11.60;;;6.20;;
9160;SDS011;4615;51.340;8.288;2022-09-21T05:38:56;9.13;;;5.27;;
9160;SDS011;4615;51.340;8.288;2022-09-21T05:41:24;13.30;;;5.40;;
9160;SDS011;4615;51.340;8.288;2022-09-21T05:43:51;20.10;;;5.77;;
9160;SDS011;4615;51.340;8.288;2022-09-21T05:46:18;10.20;;;5.27;;
9160;SDS011;4615;51.340;8.288;2022-09-21T05:48:46;22.73;;;5.67;;
9160;SDS011;4615;51.340;8.288;2022-09-21T05:51:19;14.47;;;5.07;;
9160;SDS011;4615;51.340;8.288;2022-09-21T05:53:53;9.70;;;5.10;;
9160;SDS011;4615;51.340;8.288;2022-09-21T05:56:31;9.97;;;5.20;;
9160;SDS011;4615;51.340;8.288;2022-09-21T05:59:02;12.40;;;4.60;;
9160;SDS011;4615;51.340;8.288;2022-09-21T06:01:33;10.90;;;3.40;;
9160;SDS011;4615;51.340;8.288;2022-09-21T06:04:02;8.97;;;3.53;;
9160;SDS011;4615;51.340;8.288;2022-09-21T06:06:29;3.00;;;2.70;;
9160;SDS011;4615;51.340;8.288;2022-09-21T06:08:55;4.43;;;2.63;;
9160;SDS011;4615;51.340;8.288;2022-09-21T06:11:22;6.63;;;2.67;;
9160;SDS011;4615;51.340;8.288;2022-09-21T06:13:49;15.10;;;3.87;;
9160;SDS011;4615;51.340;8.288;2022-09-21T06:16:16;4.13;;;2.73;;
9160;SDS011;4615;51.340;8.288;2022-09-21T06:18:42;14.17;;;4.03;;
9160;SDS011;4615;51.340;8.288;2022-09-21T06:21:09;8.57;;;4.07;;
9160;SDS011;4615;51.340;8.288;2022-09-21T06:23:35;9.10;;;5.53;;
9160;SDS011;4615;51.340;8.288;2022-09-21T06:26:01;8.20;;;4.00;;
9160;SDS011;4615;51.340;8.288;2022-09-21T06:28:28;2.90;;;2.50;;
9160;SDS011;4615;51.340;8.288;2022-09-21T06:30:56;9.13;;;2.53;;
9160;SDS011;4615;51.340;8.288;2022-09-21T06:33:23;14.10;;;2.80;;
9160;SDS011;4615;51.340;8.288;2022-09-21T06:35:53;3.47;;;2.60;;
9160;SDS011;4615;51.340;8.288;2022-09-21T06:38:19;11.50;;;2.93;;
9160;SDS011;4615;51.340;8.288;2022-09-21T06:40:46;5.27;;;3.83;;
9160;SDS011;4615;51.340;8.288;2022-09-21T06:43:12;5.17;;;4.30;;
9160;SDS011;4615;51.340;8.288;2022-09-21T06:45:39;18.80;;;3.70;;
9160;SDS011;4615;51.340;8.288;2022-09-21T06:48:07;5.47;;;3.63;;
9160;SDS011;4615;51.340;8.288;2022-09-21T06:50:33;16.97;;;5.03;;
9160;SDS011;4615;51.340;8.288;2022-09-21T06:52:59;8.37;;;4.10;;
9160;SDS011;4615;51.340;8.288;2022-09-21T06:55:26;6.13;;;2.97;;
9160;SDS011;4615;51.340;8.288;2022-09-21T06:57:56;3.13;;;2.80;;
9160;SDS011;4615;51.340;8.288;2022-09-21T07:00:24;12.27;;;3.07;;
9160;SDS011;4615;51.340;8.288;2022-09-21T07:02:50;11.67;;;2.90;;
9160;SDS011;4615;51.340;8.288;2022-09-21T07:05:18;5.43;;;2.83;;
9160;SDS011;4615;51.340;8.288;2022-09-21T07:07:44;4.23;;;2.77;;
9160;SDS011;4615;51.340;8.288;2022-09-21T07:10:11;4.13;;;2.67;;
9160;SDS011;4615;51.340;8.288;2022-09-21T07:12:37;9.03;;;3.00;;
9160;SDS011;4615;51.340;8.288;2022-09-21T07:15:04;6.10;;;2.83;;
9160;SDS011;4615;51.340;8.288;2022-09-21T07:17:31;4.47;;;2.90;;
9160;SDS011;4615;51.340;8.288;2022-09-21T07:19:57;12.73;;;4.73;;
9160;SDS011;4615;51.340;8.288;2022-09-21T07:22:26;13.63;;;4.20;;
9160;SDS011;4615;51.340;8.288;2022-09-21T07:24:53;8.43;;;3.87;;
9160;SDS011;4615;51.340;8.288;2022-09-21T07:27:19;3.90;;;3.50;;
9160;SDS011;4615;51.340;8.288;2022-09-21T07:29:45;9.97;;;4.90;;
9160;SDS011;4615;51.340;8.288;2022-09-21T07:32:12;14.30;;;6.70;;
9160;SDS011;4615;51.340;8.288;2022-09-21T07:34:38;12.03;;;6.37;;
9160;SDS011;4615;51.340;8.288;2022-09-21T07:37:05;9.90;;;6.83;;
9160;SDS011;4615;51.340;8.288;2022-09-21T07:39:32;11.17;;;6.83;;
9160;SDS011;4615;51.340;8.288;2022-09-21T07:41:59;11.40;;;7.80;;
9160;SDS011;4615;51.340;8.288;2022-09-21T07:44:26;13.73;;;8.80;;
9160;SDS011;4615;51.340;8.288;2022-09-21T07:46:52;12.67;;;8.43;;
9160;SDS011;4615;51.340;8.288;2022-09-21T07:49:18;13.77;;;8.37;;
9160;SDS011;4615;51.340;8.288;2022-09-21T07:51:45;11.40;;;8.13;;
9160;SDS011;4615;51.340;8.288;2022-09-21T07:54:11;13.53;;;8.03;;
9160;SDS011;4615;51.340;8.288;2022-09-21T07:56:41;10.57;;;7.50;;
9160;SDS011;4615;51.340;8.288;2022-09-21T07:59:27;8.67;;;5.63;;
9160;SDS011;4615;51.340;8.288;2022-09-21T08:01:56;6.97;;;6.27;;
9160;SDS011;4615;51.340;8.288;2022-09-21T08:04:22;5.33;;;4.10;;
9160;SDS011;4615;51.340;8.288;2022-09-21T08:06:49;6.67;;;5.90;;
9160;SDS011;4615;51.340;8.288;2022-09-21T08:09:15;5.63;;;4.67;;
9160;SDS011;4615;51.340;8.288;2022-09-21T08:11:43;7.33;;;5.40;;
9160;SDS011;4615;51.340;8.288;2022-09-21T08:14:11;6.17;;;3.00;;
9160;SDS011;4615;51.340;8.288;2022-09-21T08:16:43;3.50;;;3.17;;
9160;SDS011;4615;51.340;8.288;2022-09-21T08:19:10;5.73;;;4.53;;
9160;SDS011;4615;51.340;8.288;2022-09-21T08:21:36;4.33;;;3.80;;
9160;SDS011;4615;51.340;8.288;2022-09-21T08:24:03;4.00;;;3.47;;
9160;SDS011;4615;51.340;8.288;2022-09-21T08:26:29;3.47;;;3.07;;
9160;SDS011;4615;51.340;8.288;2022-09-21T08:28:57;4.27;;;2.80;;
9160;SDS011;4615;51.340;8.288;2022-09-21T08:31:23;3.60;;;3.30;;
9160;SDS011;4615;51.340;8.288;2022-09-21T08:33:50;3.73;;;2.80;;
9160;SDS011;4615;51.340;8.288;2022-09-21T08:36:17;4.30;;;3.20;;
9160;SDS011;4615;51.340;8.288;2022-09-21T08:38:44;4.73;;;3.20;;
9160;SDS011;4615;51.340;8.288;2022-09-21T08:41:13;4.23;;;3.30;;
9160;SDS011;4615;51.340;8.288;2022-09-21T08:43:40;5.47;;;3.73;;
9160;SDS011;4615;51.340;8.288;2022-09-21T08:46:09;4.83;;;3.43;;
9160;SDS011;4615;51.340;8.288;2022-09-21T08:48:38;4.27;;;3.33;;
9160;SDS011;4615;51.340;8.288;2022-09-21T08:51:06;4.47;;;3.73;;
9160;SDS011;4615;51.340;8.288;2022-09-21T08:53:35;7.17;;;3.37;;
9160;SDS011;4615;51.340;8.288;2022-09-21T08:56:02;4.90;;;3.70;;
9160;SDS011;4615;51.340;8.288;2022-09-21T08:58:30;5.50;;;3.90;;
9160;SDS011;4615;51.340;8.288;2022-09-21T09:01:03;6.70;;;4.10;;
9160;SDS011;4615;51.340;8.288;2022-09-21T09:03:37;5.23;;;3.57;;
9160;SDS011;4615;51.340;8.288;2022-09-21T09:06:09;5.93;;;3.60;;
9160;SDS011;4615;51.340;8.288;2022-09-21T09:08:43;4.87;;;3.53;;
9160;SDS011;4615;51.340;8.288;2022-09-21T09:11:16;5.17;;;3.70;;
9160;SDS011;4615;51.340;8.288;2022-09-21T09:13:50;5.33;;;3.20;;
9160;SDS011;4615;51.340;8.288;2022-09-21T09:16:22;7.27;;;3.60;;
9160;SDS011;4615;51.340;8.288;2022-09-21T09:18:53;3.90;;;3.50;;
9160;SDS011;4615;51.340;8.288;2022-09-21T09:21:21;7.63;;;4.00;;
9160;SDS011;4615;51.340;8.288;2022-09-21T09:23:50;5.80;;;4.23;;
9160;SDS011;4615;51.340;8.288;2022-09-21T09:26:18;9.43;;;3.90;;
9160;SDS011;4615;51.340;8.288;2022-09-21T09:28:47;5.07;;;3.40;;
9160;SDS011;4615;51.340;8.288;2022-09-21T09:31:17;7.80;;;4.13;;
9160;SDS011;4615;51.340;8.288;2022-09-21T09:33:47;6.80;;;3.47;;
9160;SDS011;4615;51.340;8.288;2022-09-21T09:36:18;9.63;;;3.53;;
9160;SDS011;4615;51.340;8.288;2022-09-21T09:38:46;7.33;;;3.57;;
9160;SDS011;4615;51.340;8.288;2022-09-21T09:43:58;3.43;;;1.63;;
9160;SDS011;4615;51.340;8.288;2022-09-21T09:46:31;4.53;;;1.50;;
9160;SDS011;4615;51.340;8.288;2022-09-21T09:49:04;4.63;;;1.43;;
9160;SDS011;4615;51.340;8.288;2022-09-21T09:51:34;1.67;;;1.00;;
9160;SDS011;4615;51.340;8.288;2022-09-21T09:54:05;4.13;;;1.50;;
9160;SDS011;4615;51.340;8.288;2022-09-21T09:56:38;2.83;;;1.60;;
9160;SDS011;4615;51.340;8.288;2022-09-21T09:59:04;9.27;;;1.67;;
9160;SDS011;4615;51.340;8.288;2022-09-21T10:01:36;6.30;;;1.87;;
9160;SDS011;4615;51.340;8.288;2022-09-21T10:04:03;3.57;;;1.57;;
9160;SDS011;4615;51.340;8.288;2022-09-21T10:06:30;3.70;;;2.00;;
9160;SDS011;4615;51.340;8.288;2022-09-21T10:08:58;5.77;;;2.00;;
9160;SDS011;4615;51.340;8.288;2022-09-21T10:11:32;4.93;;;1.60;;
9160;SDS011;4615;51.340;8.288;2022-09-21T10:14:05;3.80;;;1.73;;
9160;SDS011;4615;51.340;8.288;2022-09-21T10:16:32;2.73;;;1.50;;
9160;SDS011;4615;51.340;8.288;2022-09-21T10:19:05;2.67;;;1.40;;
9160;SDS011;4615;51.340;8.288;2022-09-21T10:21:32;1.93;;;1.30;;
9160;SDS011;4615;51.340;8.288;2022-09-21T10:24:00;4.00;;;1.30;;
9160;SDS011;4615;51.340;8.288;2022-09-21T10:26:30;2.93;;;1.60;;
9160;SDS011;4615;51.340;8.288;2022-09-21T10:28:57;1.33;;;1.23;;
9160;SDS011;4615;51.340;8.288;2022-09-21T10:31:24;2.00;;;1.33;;
9160;SDS011;4615;51.340;8.288;2022-09-21T10:33:52;4.43;;;1.70;;
9160;SDS011;4615;51.340;8.288;2022-09-21T10:36:31;2.60;;;1.30;;
9160;SDS011;4615;51.340;8.288;2022-09-21T10:39:18;3.80;;;1.50;;
9160;SDS011;4615;51.340;8.288;2022-09-21T10:41:52;2.60;;;1.37;;
9160;SDS011;4615;51.340;8.288;2022-09-21T10:44:20;4.37;;;1.20;;
9160;SDS011;4615;51.340;8.288;2022-09-21T10:46:47;1.73;;;0.80;;
9160;SDS011;4615;51.340;8.288;2022-09-21T10:49:15;1.80;;;1.13;;
9160;SDS011;4615;51.340;8.288;2022-09-21T10:51:43;1.90;;;1.03;;
9160;SDS011;4615;51.340;8.288;2022-09-21T10:54:13;1.50;;;1.27;;
9160;SDS011;4615;51.340;8.288;2022-09-21T10:56:49;1.90;;;1.10;;
9160;SDS011;4615;51.340;8.288;2022-09-21T10:59:21;1.47;;;1.10;;
9160;SDS011;4615;51.340;8.288;2022-09-21T11:01:48;1.40;;;0.90;;
9160;SDS011;4615;51.340;8.288;2022-09-21T11:04:16;5.00;;;1.10;;
9160;SDS011;4615;51.340;8.288;2022-09-21T11:06:45;2.23;;;1.10;;
9160;SDS011;4615;51.340;8.288;2022-09-21T11:09:13;1.93;;;1.00;;
9160;SDS011;4615;51.340;8.288;2022-09-21T11:11:45;1.10;;;0.90;;
9160;SDS011;4615;51.340;8.288;2022-09-21T11:14:15;2.03;;;0.90;;
9160;SDS011;4615;51.340;8.288;2022-09-21T11:16:45;2.20;;;1.27;;
9160;SDS011;4615;51.340;8.288;2022-09-21T11:19:16;1.50;;;0.77;;
9160;SDS011;4615;51.340;8.288;2022-09-21T11:21:44;1.97;;;0.80;;
9160;SDS011;4615;51.340;8.288;2022-09-21T11:24:13;1.40;;;0.60;;
9160;SDS011;4615;51.340;8.288;2022-09-21T11:26:44;1.80;;;0.87;;
9160;SDS011;4615;51.340;8.288;2022-09-21T11:29:17;1.23;;;0.67;;
9160;SDS011;4615;51.340;8.288;2022-09-21T11:31:58;1.13;;;0.83;;
9160;SDS011;4615;51.340;8.288;2022-09-21T11:34:34;1.63;;;0.80;;
9160;SDS011;4615;51.340;8.288;2022-09-21T11:37:06;1.93;;;0.90;;
9160;SDS011;4615;51.340;8.288;2022-09-21T11:39:38;1.63;;;0.90;;
9160;SDS011;4615;51.340;8.288;2022-09-21T11:42:12;2.00;;;0.93;;
9160;SDS011;4615;51.340;8.288;2022-09-21T11:44:46;1.73;;;1.03;;
9160;SDS011;4615;51.340;8.288;2022-09-21T11:47:22;1.20;;;1.00;;
9160;SDS011;4615;51.340;8.288;2022-09-21T11:50:05;1.23;;;1.00;;
9160;SDS011;4615;51.340;8.288;2022-09-21T11:52:36;1.30;;;0.90;;
9160;SDS011;4615;51.340;8.288;2022-09-21T11:55:18;2.87;;;1.03;;
9160;SDS011;4615;51.340;8.288;2022-09-21T11:57:48;4.00;;;1.10;;
9160;SDS011;4615;51.340;8.288;2022-09-21T12:00:19;1.50;;;1.17;;
9160;SDS011;4615;51.340;8.288;2022-09-21T12:05:28;5.17;;;1.27;;
9160;SDS011;4615;51.340;8.288;2022-09-21T12:10:38;3.80;;;1.10;;
9160;SDS011;4615;51.340;8.288;2022-09-21T12:13:05;2.13;;;1.23;;
9160;SDS011;4615;51.340;8.288;2022-09-21T12:15:37;3.67;;;1.20;;
9160;SDS011;4615;51.340;8.288;2022-09-21T12:18:06;2.03;;;1.10;;
9160;SDS011;4615;51.340;8.288;2022-09-21T12:20:36;4.40;;;1.40;;
9160;SDS011;4615;51.340;8.288;2022-09-21T12:23:06;2.57;;;1.20;;
9160;SDS011;4615;51.340;8.288;2022-09-21T12:25:36;4.30;;;1.10;;
9160;SDS011;4615;51.340;8.288;2022-09-21T12:28:05;4.17;;;1.53;;
9160;SDS011;4615;51.340;8.288;2022-09-21T12:30:33;3.70;;;1.37;;
9160;SDS011;4615;51.340;8.288;2022-09-21T12:33:05;5.37;;;1.27;;
9160;SDS011;4615;51.340;8.288;2022-09-21T12:35:36;2.80;;;1.37;;
9160;SDS011;4615;51.340;8.288;2022-09-21T12:38:04;3.50;;;1.37;;
9160;SDS011;4615;51.340;8.288;2022-09-21T12:40:36;1.60;;;1.00;;
9160;SDS011;4615;51.340;8.288;2022-09-21T12:43:05;4.10;;;1.30;;
9160;SDS011;4615;51.340;8.288;2022-09-21T12:45:33;2.83;;;1.00;;
9160;SDS011;4615;51.340;8.288;2022-09-21T12:48:02;4.47;;;1.30;;
9160;SDS011;4615;51.340;8.288;2022-09-21T12:50:36;4.43;;;1.30;;
9160;SDS011;4615;51.340;8.288;2022-09-21T12:53:04;2.40;;;0.93;;
9160;SDS011;4615;51.340;8.288;2022-09-21T12:55:33;2.37;;;1.20;;
9160;SDS011;4615;51.340;8.288;2022-09-21T12:58:04;3.23;;;1.20;;
9160;SDS011;4615;51.340;8.288;2022-09-21T13:00:34;4.40;;;1.30;;
9160;SDS011;4615;51.340;8.288;2022-09-21T13:03:08;2.20;;;1.20;;
9160;SDS011;4615;51.340;8.288;2022-09-21T13:05:41;2.90;;;1.10;;
9160;SDS011;4615;51.340;8.288;2022-09-21T13:08:11;4.20;;;1.20;;
9160;SDS011;4615;51.340;8.288;2022-09-21T13:10:42;3.03;;;1.30;;
9160;SDS011;4615;51.340;8.288;2022-09-21T13:13:18;2.63;;;1.20;;
9160;SDS011;4615;51.340;8.288;2022-09-21T13:15:48;2.70;;;1.30;;
9160;SDS011;4615;51.340;8.288;2022-09-21T13:18:16;1.50;;;1.10;;
9160;SDS011;4615;51.340;8.288;2022-09-21T13:20:44;2.67;;;1.27;;
9160;SDS011;4615;51.340;8.288;2022-09-21T13:23:13;2.17;;;1.10;;
9160;SDS011;4615;51.340;8.288;2022-09-21T13:25:40;2.37;;;1.40;;
9160;SDS011;4615;51.340;8.288;2022-09-21T13:28:16;3.33;;;1.30;;
9160;SDS011;4615;51.340;8.288;2022-09-21T13:30:44;2.43;;;1.17;;
9160;SDS011;4615;51.340;8.288;2022-09-21T13:36:01;3.37;;;1.10;;
9160;SDS011;4615;51.340;8.288;2022-09-21T13:38:31;4.30;;;1.47;;
9160;SDS011;4615;51.340;8.288;2022-09-21T13:41:02;1.87;;;1.20;;
9160;SDS011;4615;51.340;8.288;2022-09-21T13:49:12;1.60;;;1.00;;
9160;SDS011;4615;51.340;8.288;2022-09-21T13:51:50;2.00;;;1.10;;
9160;SDS011;4615;51.340;8.288;2022-09-21T13:54:18;2.43;;;1.17;;
9160;SDS011;4615;51.340;8.288;2022-09-21T13:56:45;1.97;;;1.10;;
9160;SDS011;4615;51.340;8.288;2022-09-21T13:59:16;3.07;;;1.27;;
9160;SDS011;4615;51.340;8.288;2022-09-21T14:01:45;5.30;;;1.50;;
9160;SDS011;4615;51.340;8.288;2022-09-21T14:04:16;1.83;;;1.10;;
9160;SDS011;4615;51.340;8.288;2022-09-21T14:06:44;1.63;;;1.27;;
9160;SDS011;4615;51.340;8.288;2022-09-21T14:09:19;1.50;;;1.20;;
9160;SDS011;4615;51.340;8.288;2022-09-21T14:11:49;2.70;;;1.23;;
9160;SDS011;4615;51.340;8.288;2022-09-21T14:14:20;3.50;;;1.23;;
9160;SDS011;4615;51.340;8.288;2022-09-21T14:16:52;4.50;;;1.30;;
9160;SDS011;4615;51.340;8.288;2022-09-21T14:22:30;5.47;;;1.60;;
9160;SDS011;4615;51.340;8.288;2022-09-21T14:27:40;3.83;;;1.30;;
9160;SDS011;4615;51.340;8.288;2022-09-21T14:30:15;4.47;;;1.30;;
9160;SDS011;4615;51.340;8.288;2022-09-21T14:32:42;3.43;;;2.00;;
9160;SDS011;4615;51.340;8.288;2022-09-21T14:35:12;3.57;;;1.40;;
9160;SDS011;4615;51.340;8.288;2022-09-21T14:37:41;4.13;;;1.33;;
9160;SDS011;4615;51.340;8.288;2022-09-21T14:40:15;2.50;;;1.37;;
9160;SDS011;4615;51.340;8.288;2022-09-21T14:42:43;4.23;;;1.23;;
9160;SDS011;4615;51.340;8.288;2022-09-21T14:45:13;3.37;;;1.20;;
9160;SDS011;4615;51.340;8.288;2022-09-21T14:47:53;3.93;;;1.50;;
9160;SDS011;4615;51.340;8.288;2022-09-21T14:50:32;5.03;;;1.40;;
9160;SDS011;4615;51.340;8.288;2022-09-21T14:53:02;2.93;;;1.27;;
9160;SDS011;4615;51.340;8.288;2022-09-21T14:55:39;4.23;;;1.50;;
9160;SDS011;4615;51.340;8.288;2022-09-21T14:58:13;3.00;;;1.40;;
9160;SDS011;4615;51.340;8.288;2022-09-21T15:00:43;3.90;;;1.57;;
9160;SDS011;4615;51.340;8.288;2022-09-21T15:03:18;3.20;;;1.20;;
9160;SDS011;4615;51.340;8.288;2022-09-21T15:05:51;2.43;;;1.37;;
9160;SDS011;4615;51.340;8.288;2022-09-21T15:08:24;3.20;;;1.47;;
9160;SDS011;4615;51.340;8.288;2022-09-21T15:11:14;2.57;;;1.27;;
9160;SDS011;4615;51.340;8.288;2022-09-21T15:14:02;5.97;;;1.80;;
9160;SDS011;4615;51.340;8.288;2022-09-21T15:16:33;3.33;;;1.30;;
9160;SDS011;4615;51.340;8.288;2022-09-21T15:21:43;4.00;;;1.27;;
9160;SDS011;4615;51.340;8.288;2022-09-21T15:24:15;2.83;;;1.37;;
9160;SDS011;4615;51.340;8.288;2022-09-21T15:26:42;2.93;;;1.50;;
9160;SDS011;4615;51.340;8.288;2022-09-21T15:29:16;6.23;;;1.57;;
9160;SDS011;4615;51.340;8.288;2022-09-21T15:31:45;3.60;;;1.40;;
9160;SDS011;4615;51.340;8.288;2022-09-21T15:34:11;4.60;;;1.40;;
9160;SDS011;4615;51.340;8.288;2022-09-21T15:36:39;4.83;;;1.40;;
9160;SDS011;4615;51.340;8.288;2022-09-21T15:39:06;3.53;;;1.37;;
9160;SDS011;4615;51.340;8.288;2022-09-21T15:41:45;4.77;;;1.80;;
9160;SDS011;4615;51.340;8.288;2022-09-21T15:44:15;4.90;;;1.50;;
9160;SDS011;4615;51.340;8.288;2022-09-21T15:46:42;3.60;;;1.33;;
9160;SDS011;4615;51.340;8.288;2022-09-21T15:49:11;1.93;;;1.20;;